Time;durP1;ratioP1;P1;durP2;ratioP2;P2;SDS_P1;SDS_P2;PMS_P1;PMS_P2;Temp;Humidity;BMP_temperature;BMP_pressure;BME280_temperature;BME280_humidity;BME280_pressure;Samples;Min_cycle;Max_cycle;Signal;HPM_P1;HPM_P2
2021/03/20 00:01:17;;;;;;;7.42;6.10;;;;;;;-0.48;87.41;99296.95;1758302;81;21116;-62
2021/03/20 00:03:45;;;;;;;8.13;6.78;;;;;;;-0.50;87.40;99294.39;1758073;81;21076;-63
2021/03/20 00:06:14;;;;;;;7.28;5.95;;;;;;;-0.51;87.47;99293.12;1809771;79;21052;-62
2021/03/20 00:08:46;;;;;;;6.37;5.67;;;;;;;-0.50;87.45;99288.44;1809738;79;21372;-62
2021/03/20 00:11:14;;;;;;;7.03;5.75;;;;;;;-0.52;87.27;99287.58;1809974;79;21512;-63
2021/03/20 00:13:42;;;;;;;6.87;5.92;;;;;;;-0.53;87.23;99284.17;1758262;81;21093;-63
2021/03/20 00:16:10;;;;;;;7.37;5.58;;;;;;;-0.55;87.23;99287.58;1809673;79;21919;-63
2021/03/20 00:18:38;;;;;;;7.33;5.95;;;;;;;-0.56;87.25;99290.55;1758273;81;21483;-63
2021/03/20 00:21:07;;;;;;;8.05;5.15;;;;;;;-0.58;87.18;99296.51;1809797;79;22818;-63
2021/03/20 00:23:35;;;;;;;6.97;5.08;;;;;;;-0.57;87.22;99291.83;1758322;80;21503;-62
2021/03/20 00:26:04;;;;;;;8.10;6.33;;;;;;;-0.59;87.16;99291.83;1809760;78;21031;-61
2021/03/20 00:28:31;;;;;;;7.05;5.45;;;;;;;-0.60;87.25;99290.13;1809716;79;21071;-62
2021/03/20 00:31:02;;;;;;;7.72;5.78;;;;;;;-0.59;87.33;99290.97;1758283;80;21273;-62
2021/03/20 00:33:30;;;;;;;8.28;5.65;;;;;;;-0.57;87.30;99295.66;1809310;79;22507;-62
2021/03/20 00:35:57;;;;;;;7.22;5.60;;;;;;;-0.58;87.19;99285.02;1758199;81;21107;-61
2021/03/20 00:38:26;;;;;;;6.55;5.65;;;;;;;-0.57;87.16;99290.13;1809744;79;21519;-62
2021/03/20 00:40:54;;;;;;;8.35;5.55;;;;;;;-0.58;87.05;99294.80;1809708;79;21496;-62
2021/03/20 00:43:23;;;;;;;7.53;5.37;;;;;;;-0.59;86.93;99294.38;1758279;81;21084;-61
2021/03/20 00:45:50;;;;;;;7.08;6.35;;;;;;;-0.62;87.00;99290.58;1809858;79;22296;-61
2021/03/20 00:48:25;;;;;;;7.87;5.60;;;;;;;-0.61;87.12;99293.55;1758243;80;21116;-62
2021/03/20 00:50:53;;;;;;;7.97;6.60;;;;;;;-0.61;86.95;99292.28;1810813;79;21048;-62
2021/03/20 00:53:21;;;;;;;8.38;5.92;;;;;;;-0.61;86.94;99293.55;1761318;81;21051;-61
2021/03/20 00:55:51;;;;;;;8.40;5.97;;;;;;;-0.61;86.80;99292.70;1807327;79;21131;-61
2021/03/20 00:58:31;;;;;;;9.68;6.90;;;;;;;-0.64;86.77;99293.55;1807315;79;21197;-61
2021/03/20 01:01:06;;;;;;;8.23;5.60;;;;;;;-0.63;86.79;99295.68;1807397;79;21567;-62
2021/03/20 01:03:37;;;;;;;8.63;5.60;;;;;;;-0.62;86.67;99298.23;1807370;79;21052;-62
2021/03/20 01:06:09;;;;;;;6.97;5.47;;;;;;;-0.62;86.61;99297.38;1807292;79;21068;-62
2021/03/20 01:08:37;;;;;;;5.90;4.65;;;;;;;-0.62;86.64;99294.83;1807343;79;21057;-62
2021/03/20 01:11:06;;;;;;;7.37;4.87;;;;;;;-0.63;86.49;99294.41;1761369;80;21366;-62
2021/03/20 01:13:36;;;;;;;6.17;4.47;;;;;;;-0.63;86.44;99293.98;1807249;79;21085;-61
2021/03/20 01:16:05;;;;;;;6.95;4.87;;;;;;;-0.63;86.45;99294.41;1761346;81;21476;-62
2021/03/20 01:18:34;;;;;;;7.15;4.85;;;;;;;-0.66;86.52;99297.80;1807312;79;21068;-62
2021/03/20 01:21:02;;;;;;;6.80;5.47;;;;;;;-0.67;86.56;99296.52;1807420;79;21456;-62
2021/03/20 01:23:29;;;;;;;6.05;4.90;;;;;;;-0.67;86.59;99297.38;1761366;81;21213;-61
2021/03/20 01:25:57;;;;;;;5.62;4.33;;;;;;;-0.66;86.65;99293.97;1807273;79;21171;-61
2021/03/20 01:28:29;;;;;;;6.50;4.67;;;;;;;-0.65;86.56;99294.82;1761342;80;21068;-61
2021/03/20 01:30:57;;;;;;;6.83;4.85;;;;;;;-0.66;86.60;99294.39;1807664;79;21142;-62
2021/03/20 01:33:26;;;;;;;7.42;4.62;;;;;;;-0.65;86.61;99296.95;1761348;81;21194;-61
2021/03/20 01:35:54;;;;;;;8.70;4.92;;;;;;;-0.65;86.55;99294.40;1807301;79;21430;-61
2021/03/20 01:38:22;;;;;;;7.72;5.08;;;;;;;-0.62;86.66;99296.11;1761292;81;21064;-61
2021/03/20 01:40:52;;;;;;;5.08;4.58;;;;;;;-0.60;86.57;99296.96;1807253;79;21514;-61
2021/03/20 01:43:23;;;;;;;5.40;4.50;;;;;;;-0.59;86.37;99299.48;1761342;81;21123;-61
2021/03/20 01:45:50;;;;;;;6.87;5.10;;;;;;;-0.61;86.30;99291.42;1807326;79;21112;-61
2021/03/20 01:48:24;;;;;;;7.33;5.53;;;;;;;-0.63;86.34;99297.81;1761342;81;21150;-61
2021/03/20 01:51:01;;;;;;;6.47;5.08;;;;;;;-0.64;86.32;99291.42;1807062;79;21481;-61
2021/03/20 01:53:46;;;;;;;6.70;5.47;;;;;;;-0.65;86.31;99296.10;1761450;81;21555;-61
2021/03/20 01:56:21;;;;;;;5.33;4.60;;;;;;;-0.68;86.43;99285.45;1807299;79;21044;-61
2021/03/20 01:58:50;;;;;;;7.92;5.15;;;;;;;-0.67;86.55;99301.20;1761361;81;21131;-61
2021/03/20 02:01:30;;;;;;;6.83;5.10;;;;;;;-0.67;86.58;99292.27;1782931;79;22196;-61
2021/03/20 02:03:58;;;;;;;5.97;4.75;;;;;;;-0.65;86.54;99293.55;1761301;80;21127;-61
2021/03/20 02:06:26;;;;;;;6.58;5.58;;;;;;;-0.64;86.58;99300.36;1807370;79;21453;-61
2021/03/20 02:08:57;;;;;;;5.80;4.47;;;;;;;-0.64;86.59;99301.64;1761268;81;21111;-61
2021/03/20 02:11:48;;;;;;;9.08;5.45;;;;;;;-0.65;86.63;99302.06;1808933;79;21032;-61
2021/03/20 02:14:59;;;;;;;7.10;5.60;;;;;;;-0.66;86.63;99297.80;1761395;80;21452;-61
2021/03/20 02:17:37;;;;;;;6.62;5.22;;;;;;;-0.68;86.75;99298.65;1807228;79;21064;-61
2021/03/20 02:20:34;;;;;;;7.78;5.40;;;;;;;-0.67;86.74;99300.35;1761341;80;21047;-61
2021/03/20 02:23:13;;;;;;;6.83;5.08;;;;;;;-0.70;86.78;99299.92;1806485;79;21508;-61
2021/03/20 02:26:27;;;;;;;6.67;5.22;;;;;;;-0.73;86.97;99302.05;1761341;81;21052;-61
2021/03/20 02:29:42;;;;;;;6.47;4.92;;;;;;;-0.72;87.04;99308.86;1807481;79;22306;-61
2021/03/20 02:32:48;;;;;;;5.30;4.08;;;;;;;-0.71;87.21;99306.73;1761256;80;21163;-61
2021/03/20 02:35:37;;;;;;;5.80;4.62;;;;;;;-0.70;87.24;99309.71;1807382;79;21052;-61
2021/03/20 02:38:30;;;;;;;5.87;5.00;;;;;;;-0.70;87.21;99310.13;1807351;79;21056;-61
2021/03/20 02:41:28;;;;;;;6.40;5.17;;;;;;;-0.73;87.20;99317.36;1761318;80;21512;-61
2021/03/20 02:44:23;;;;;;;7.95;5.05;;;;;;;-0.73;87.41;99320.34;1807249;79;21492;-63
2021/03/20 02:46:56;;;;;;;7.60;5.42;;;;;;;-0.73;87.36;99317.79;1782558;79;21104;-61
2021/03/20 02:49:34;;;;;;;;;;;;;;;-0.73;87.39;99312.26;1771816;81;21487;-61
2021/03/20 02:52:17;;;;;;;7.03;5.50;;;;;;;-0.73;87.44;99310.98;1807161;79;20667;-61
2021/03/20 02:55:18;;;;;;;8.35;5.33;;;;;;;-0.74;87.57;99318.64;1761313;81;21123;-62
2021/03/20 02:58:04;;;;;;;5.28;4.67;;;;;;;-0.73;87.50;99316.52;1764643;79;22419;-62
2021/03/20 03:00:37;;;;;;;5.70;4.97;;;;;;;-0.75;87.43;99313.95;1807197;79;21076;-61
2021/03/20 03:03:05;;;;;;;;;;;;;;;-0.76;87.59;99316.08;1763921;81;21156;-61
2021/03/20 03:05:38;;;;;;;7.37;5.15;;;;;;;-0.75;87.70;99319.48;1807267;79;20237;-62
2021/03/20 03:08:18;;;;;;;6.50;5.15;;;;;;;-0.72;87.73;99317.80;1807370;79;21461;-61
2021/03/20 03:10:51;;;;;;;5.55;4.97;;;;;;;-0.68;87.62;99328.02;1744099;81;21350;-61
2021/03/20 03:13:26;;;;;;;6.78;5.47;;;;;;;-0.68;87.59;99328.02;1782624;79;21575;-62
2021/03/20 03:16:07;;;;;;;5.72;4.97;;;;;;;-0.68;87.65;99327.59;1807256;79;21049;-62
2021/03/20 03:18:56;;;;;;;5.67;4.87;;;;;;;-0.64;87.60;99329.73;1799885;79;21064;-61
2021/03/20 03:21:26;;;;;;;6.65;5.25;;;;;;;-0.62;87.55;99329.31;1761323;81;21047;-61
2021/03/20 03:23:53;;;;;;;6.00;4.90;;;;;;;-0.60;87.50;99327.16;1807299;79;21559;-61
2021/03/20 03:26:28;;;;;;;6.22;5.10;;;;;;;-0.58;87.50;99328.44;1761179;81;21119;-62
2021/03/20 03:29:00;;;;;;;5.83;5.05;;;;;;;-0.58;87.38;99337.37;1807331;79;21037;-61
2021/03/20 03:31:39;;;;;;;5.95;5.05;;;;;;;-0.60;87.33;99334.82;1782561;79;21555;-61
2021/03/20 03:34:15;;;;;;;6.35;5.28;;;;;;;-0.61;87.46;99338.25;1806820;79;21623;-61
2021/03/20 03:36:57;;;;;;;6.30;4.90;;;;;;;-0.61;87.51;99340.81;1807247;79;22361;-62
2021/03/20 03:39:59;;;;;;;5.47;4.37;;;;;;;-0.61;87.34;99345.06;1807213;79;21073;-61
2021/03/20 03:42:28;;;;;;;6.45;4.92;;;;;;;-0.62;87.44;99343.36;1768380;81;21584;-61
2021/03/20 03:44:55;;;;;;;6.08;5.47;;;;;;;-0.63;87.42;99346.77;1807171;79;21999;-61
2021/03/20 03:47:27;;;;;;;6.65;5.70;;;;;;;-0.64;87.52;99350.16;1761266;81;21060;-61
2021/03/20 03:49:56;;;;;;;5.33;4.83;;;;;;;-0.61;87.58;99348.47;1807281;79;21211;-61
2021/03/20 03:52:24;;;;;;;6.47;5.42;;;;;;;-0.59;87.63;99351.00;1759083;81;21499;-62
2021/03/20 03:54:51;;;;;;;5.90;5.12;;;;;;;-0.59;87.66;99348.02;1809702;79;21100;-62
2021/03/20 03:57:33;;;;;;;6.37;4.90;;;;;;;-0.57;87.56;99350.58;1758353;81;21480;-62
2021/03/20 04:00:15;;;;;;;8.60;5.78;;;;;;;-0.56;87.54;99351.86;1809788;79;21725;-61
2021/03/20 04:02:49;;;;;;;7.72;5.97;;;;;;;-0.57;87.60;99351.86;1809920;79;21195;-61
2021/03/20 04:05:37;;;;;;;8.03;5.62;;;;;;;-0.58;87.54;99345.89;1758207;81;21527;-61
2021/03/20 04:08:28;;;;;;;7.75;6.37;;;;;;;-0.58;87.51;99352.70;1809773;79;21495;-62
2021/03/20 04:11:03;;;;;;;7.42;5.70;;;;;;;-0.57;87.57;99350.16;1758262;81;21083;-61
2021/03/20 04:13:51;;;;;;;9.03;6.53;;;;;;;-0.55;87.47;99347.18;1780700;79;21139;-62
2021/03/20 04:16:26;;;;;;;7.50;5.87;;;;;;;-0.54;87.33;99346.76;1758317;81;21434;-62
2021/03/20 04:19:30;;;;;;;6.70;5.55;;;;;;;-0.55;87.25;99354.84;1809353;79;21072;-61
2021/03/20 04:22:03;;;;;;;;;;;;;;;-0.55;87.24;99353.98;1776908;79;21178;-62
2021/03/20 04:24:36;;;;;;;6.58;5.70;;;;;;;-0.57;87.22;99353.98;1810022;79;20228;-62
2021/03/20 04:27:07;;;;;;;;;;;;;;;-0.58;87.20;99360.37;1812495;79;21048;-62
2021/03/20 04:30:15;;;;;;;6.40;5.33;;;;;;;-0.59;87.12;99354.83;1780773;79;21221;-62
2021/03/20 04:33:07;;;;;;;7.97;5.92;;;;;;;-0.58;87.22;99365.48;1758337;81;21175;-62
2021/03/20 04:35:39;;;;;;;7.30;5.97;;;;;;;-0.57;87.14;99365.48;1810037;79;21059;-62
2021/03/20 04:38:07;;;;;;;7.92;5.83;;;;;;;-0.55;87.08;99370.17;1758745;80;21056;-62
2021/03/20 04:40:43;;;;;;;6.62;5.62;;;;;;;-0.52;87.01;99371.88;1809893;79;21468;-63
2021/03/20 04:43:15;;;;;;;6.72;6.05;;;;;;;-0.51;87.01;99371.89;1809946;79;21368;-63
2021/03/20 04:45:59;;;;;;;8.83;5.95;;;;;;;-0.49;87.02;99372.75;1758402;81;21088;-62
2021/03/20 04:48:35;;;;;;;6.12;5.03;;;;;;;-0.43;87.04;99382.13;1809945;79;21163;-61
2021/03/20 04:51:39;;;;;;;6.70;5.33;;;;;;;-0.37;86.79;99380.83;1809779;78;21076;-61
2021/03/20 04:54:14;;;;;;;6.53;5.40;;;;;;;-0.35;86.77;99381.27;1809910;79;21138;-61
2021/03/20 04:56:46;;;;;;;5.95;5.33;;;;;;;-0.30;86.66;99390.64;1758445;80;21370;-61
2021/03/20 04:59:19;;;;;;;5.97;4.85;;;;;;;-0.24;86.50;99390.66;1809853;78;21084;-62
2021/03/20 05:01:52;;;;;;;6.92;5.95;;;;;;;-0.19;86.33;99394.90;1810118;79;21579;-61
2021/03/20 05:04:29;;;;;;;6.45;5.35;;;;;;;-0.16;86.15;99398.73;1764287;81;21606;-62
2021/03/20 05:06:59;;;;;;;6.60;5.83;;;;;;;-0.12;85.94;99397.05;1809951;79;21032;-61
2021/03/20 05:09:27;;;;;;;6.55;5.37;;;;;;;-0.07;86.03;99401.31;1758383;81;21485;-61
2021/03/20 05:11:57;;;;;;;6.53;5.33;;;;;;;0.02;85.77;99403.42;1781067;79;21063;-62
2021/03/20 05:14:41;;;;;;;5.87;5.05;;;;;;;0.06;85.54;99408.97;1758496;81;21060;-61
2021/03/20 05:17:16;;;;;;;6.00;4.85;;;;;;;0.07;85.21;99412.80;1809993;79;21130;-61
2021/03/20 05:19:44;;;;;;;6.42;4.70;;;;;;;0.08;85.00;99406.84;1758439;81;21039;-61
2021/03/20 05:22:30;;;;;;;5.40;4.78;;;;;;;0.11;84.78;99411.96;1809885;79;21316;-61
2021/03/20 05:24:58;;;;;;;4.87;4.08;;;;;;;0.13;84.58;99408.98;1758342;81;21182;-61
2021/03/20 05:27:31;;;;;;;5.00;4.22;;;;;;;0.16;84.20;99414.52;1809862;79;21032;-61
2021/03/20 05:29:59;;;;;;;4.40;4.00;;;;;;;0.16;83.90;99417.08;1809954;78;21601;-61
2021/03/20 05:32:30;;;;;;;4.55;3.80;;;;;;;0.18;83.86;99422.63;1758394;81;21096;-61
2021/03/20 05:35:00;;;;;;;6.33;4.00;;;;;;;0.18;83.76;99418.78;1781038;79;21390;-62
2021/03/20 05:37:37;;;;;;;5.08;4.22;;;;;;;0.18;83.72;99426.45;1809787;79;21163;-62
2021/03/20 05:40:30;;;;;;;6.08;4.33;;;;;;;0.17;83.87;99421.34;1809839;79;21044;-62
2021/03/20 05:43:32;;;;;;;4.95;4.03;;;;;;;0.15;84.00;99423.90;1786390;79;21139;-62
2021/03/20 05:46:39;;;;;;;4.65;4.17;;;;;;;0.20;84.43;99427.73;1758410;80;21135;-62
2021/03/20 05:49:56;;;;;;;4.78;4.05;;;;;;;0.28;84.22;99441.36;1809961;78;22259;-61
2021/03/20 05:52:54;;;;;;;4.72;4.28;;;;;;;0.31;83.73;99437.52;1758164;80;21087;-62
2021/03/20 05:55:40;;;;;;;4.40;4.00;;;;;;;0.34;83.43;99447.75;1809843;79;21053;-62
2021/03/20 05:58:47;;;;;;;5.00;4.25;;;;;;;0.34;83.26;99443.50;1758379;81;21064;-62
2021/03/20 06:01:36;;;;;;;4.40;3.77;;;;;;;0.37;83.61;99449.04;1809993;79;21468;-63
2021/03/20 06:04:38;;;;;;;4.12;3.62;;;;;;;0.44;82.76;99453.70;1808645;79;21370;-62
2021/03/20 06:07:26;;;;;;;5.62;4.35;;;;;;;0.44;82.55;99453.27;1809910;79;21503;-64
2021/03/20 06:10:19;;;;;;;4.47;3.65;;;;;;;0.45;82.16;99457.97;1758415;80;21587;-63
2021/03/20 06:13:10;;;;;;;3.85;3.40;;;;;;;0.45;82.08;99456.27;1810145;79;21153;-63
2021/03/20 06:16:10;;;;;;;4.92;3.90;;;;;;;0.49;82.13;99461.80;1758499;81;21151;-61
2021/03/20 06:18:58;;;;;;;4.05;3.60;;;;;;;0.52;82.08;99458.39;1809558;79;21359;-63
2021/03/20 06:22:03;;;;;;;4.05;3.65;;;;;;;0.52;81.47;99459.25;1809780;79;21080;-61
2021/03/20 06:25:11;;;;;;;3.77;3.27;;;;;;;0.53;81.70;99466.08;1758367;80;21575;-62
2021/03/20 06:27:45;;;;;;;3.92;3.45;;;;;;;0.58;81.52;99467.35;1809826;79;21127;-60
2021/03/20 06:30:41;;;;;;;4.05;3.65;;;;;;;0.61;81.47;99466.05;1809815;79;21044;-61
2021/03/20 06:33:18;;;;;;;5.12;3.60;;;;;;;0.64;81.38;99471.16;1758348;80;22117;-62
2021/03/20 06:36:08;;;;;;;4.83;3.92;;;;;;;0.65;81.15;99472.87;1809773;78;21163;-62
2021/03/20 06:39:01;;;;;;;3.83;3.42;;;;;;;0.65;81.50;99469.88;1758338;81;21076;-62
2021/03/20 06:41:43;;;;;;;5.92;3.80;;;;;;;0.68;81.06;99476.28;1809881;79;21143;-61
2021/03/20 06:44:34;;;;;;;4.12;3.72;;;;;;;0.68;81.02;99473.72;1738867;81;21107;-61
2021/03/20 06:47:02;;;;;;;3.35;2.95;;;;;;;0.71;81.16;99470.73;1809803;78;21199;-61
2021/03/20 06:49:39;;;;;;;3.87;3.47;;;;;;;0.78;80.95;99473.72;1809765;79;21125;-61
2021/03/20 06:52:11;;;;;;;4.67;3.72;;;;;;;0.81;81.07;99479.66;1758105;81;21159;-61
2021/03/20 06:54:40;;;;;;;4.40;3.90;;;;;;;0.84;81.45;99477.09;1809826;79;21135;-61
2021/03/20 06:57:10;;;;;;;4.97;3.27;;;;;;;0.95;81.59;99478.36;1809784;79;21159;-62
2021/03/20 06:59:38;;;;;;;3.50;3.20;;;;;;;1.11;81.39;99483.86;1781534;79;22197;-62
2021/03/20 07:02:38;;;;;;;4.10;3.27;;;;;;;1.22;80.48;99487.22;1758222;81;21064;-61
2021/03/20 07:05:21;;;;;;;4.05;3.62;;;;;;;1.27;80.00;99486.78;1809492;79;21060;-61
2021/03/20 07:08:11;;;;;;;4.00;3.60;;;;;;;1.35;79.89;99489.33;1809907;79;21112;-61
2021/03/20 07:10:52;;;;;;;3.87;3.15;;;;;;;1.42;79.34;99494.83;1758242;81;21123;-62
2021/03/20 07:13:26;;;;;;;3.90;3.37;;;;;;;1.44;78.71;99490.98;1779227;79;22097;-61
2021/03/20 07:16:15;;;;;;;5.78;3.83;;;;;;;1.48;79.36;99500.37;1758248;81;21500;-61
2021/03/20 07:18:57;;;;;;;3.80;3.00;;;;;;;1.59;79.48;99506.31;1809882;78;21088;-62
2021/03/20 07:21:36;;;;;;;4.70;3.67;;;;;;;1.68;77.79;99512.66;1757503;80;21127;-63
2021/03/20 07:24:23;;;;;;;3.55;3.25;;;;;;;1.70;77.21;99510.52;1809759;79;21480;-61
2021/03/20 07:27:05;;;;;;;4.40;3.80;;;;;;;1.73;77.58;99503.24;1757573;81;21296;-62
2021/03/20 07:29:47;;;;;;;3.85;3.30;;;;;;;1.70;77.76;99509.66;1809901;79;21076;-61
2021/03/20 07:32:27;;;;;;;4.05;3.10;;;;;;;1.67;77.80;99519.93;1809848;79;21509;-63
2021/03/20 07:35:14;;;;;;;3.45;3.15;;;;;;;1.63;77.07;99518.23;1758193;81;21084;-61
2021/03/20 07:37:49;;;;;;;5.00;3.20;;;;;;;1.61;76.99;99515.67;1873520;76;22771;-62
2021/03/20 07:40:28;;;;;;;3.52;2.80;;;;;;;1.50;77.36;99519.16;1835856;78;21085;-63
2021/03/20 07:43:18;;;;;;;3.58;2.95;;;;;;;1.46;77.45;99521.30;1808542;78;21140;-61
2021/03/20 07:45:48;;;;;;;3.30;3.00;;;;;;;1.47;77.78;99531.98;1808564;79;21486;-61
2021/03/20 07:48:25;;;;;;;3.47;2.92;;;;;;;1.45;77.32;99533.27;1808514;78;21474;-61
2021/03/20 07:51:12;;;;;;;3.58;3.15;;;;;;;1.41;78.07;99531.99;1808512;79;21136;-62
2021/03/20 07:53:45;;;;;;;4.05;3.47;;;;;;;1.44;78.01;99532.84;1808678;78;21057;-62
2021/03/20 07:56:32;;;;;;;6.63;3.33;;;;;;;1.49;78.29;99535.39;1808738;79;21432;-62
2021/03/20 07:59:14;;;;;;;4.37;3.30;;;;;;;1.55;77.99;99547.77;1808568;79;21728;-61
2021/03/20 08:01:42;;;;;;;3.70;3.30;;;;;;;1.60;77.38;99538.32;1808512;79;21544;-62
2021/03/20 08:04:10;;;;;;;3.27;2.98;;;;;;;1.64;77.14;99538.73;1779529;79;21085;-62
2021/03/20 08:06:45;;;;;;;4.53;3.40;;;;;;;1.69;76.75;99540.86;1808495;79;21485;-61
2021/03/20 08:09:23;;;;;;;3.55;3.25;;;;;;;1.71;77.38;99546.84;1808442;78;21354;-62
2021/03/20 08:12:08;;;;;;;3.65;3.10;;;;;;;1.76;77.20;99551.09;1808400;78;21141;-64
2021/03/20 08:14:43;;;;;;;5.47;3.77;;;;;;;1.82;76.71;99554.89;1804106;79;21069;-62
2021/03/20 08:17:14;;;;;;;5.28;4.00;;;;;;;1.88;76.51;99553.16;1799404;79;21065;-62
2021/03/20 08:19:42;;;;;;;3.55;2.70;;;;;;;1.98;77.00;99559.95;1808466;79;21125;-63
2021/03/20 08:22:39;;;;;;;4.12;3.55;;;;;;;2.08;75.60;99553.05;1808445;79;22158;-62
2021/03/20 08:25:34;;;;;;;5.22;3.95;;;;;;;2.11;76.01;99554.31;1808213;79;21061;-62
2021/03/20 08:28:23;;;;;;;5.00;4.03;;;;;;;2.13;76.01;99551.31;1808524;79;21577;-63
2021/03/20 08:31:24;;;;;;;4.42;3.95;;;;;;;2.24;75.66;99553.80;1807156;79;21163;-62
2021/03/20 08:34:15;;;;;;;5.58;4.42;;;;;;;2.32;75.39;99550.76;1808477;79;21172;-62
2021/03/20 08:37:07;;;;;;;4.20;3.37;;;;;;;2.41;75.27;99551.95;1810856;79;21148;-62
2021/03/20 08:39:57;;;;;;;3.47;3.13;;;;;;;2.45;74.47;99550.23;1814257;79;21104;-62
2021/03/20 08:43:06;;;;;;;5.80;4.53;;;;;;;2.49;73.76;99563.03;1889993;76;22424;-63
2021/03/20 08:45:38;;;;;;;5.50;4.58;;;;;;;2.42;74.28;99558.37;1860910;77;21155;-63
2021/03/20 08:48:20;;;;;;;4.57;3.77;;;;;;;2.45;73.66;99559.20;1861192;77;21357;-62
2021/03/20 08:51:05;;;;;;;;;;;;;;;2.43;73.24;99565.64;1863547;77;20922;-63
2021/03/20 08:54:03;;;;;;;5.97;4.87;;;;;;;2.34;72.70;99568.28;1861076;77;20107;-62
2021/03/20 08:56:52;;;;;;;6.05;5.10;;;;;;;2.25;73.50;99568.33;1860931;77;21509;-62
2021/03/20 08:59:32;;;;;;;6.15;5.55;;;;;;;2.23;74.66;99568.34;1860965;77;21041;-63
2021/03/20 09:02:07;;;;;;;5.33;4.70;;;;;;;2.22;75.04;99572.20;1860881;77;22350;-63
2021/03/20 09:04:35;;;;;;;7.35;5.03;;;;;;;2.13;74.97;99582.53;1860067;77;21127;-62
2021/03/20 09:07:23;;;;;;;8.08;5.08;;;;;;;2.04;75.60;99577.00;1698804;84;21497;-62
2021/03/20 09:09:59;;;;;;;6.35;4.87;;;;;;;1.97;75.18;99582.63;1700619;84;21120;-64
2021/03/20 09:12:35;;;;;;;6.37;5.10;;;;;;;1.85;75.52;99586.51;1700738;84;21092;-64
2021/03/20 09:15:13;;;;;;;8.45;5.87;;;;;;;1.81;75.94;99587.38;1700663;84;21308;-63
2021/03/20 09:17:44;;;;;;;9.38;7.60;;;;;;;1.80;75.63;99588.69;1699819;84;21604;-62
2021/03/20 09:20:43;;;;;;;6.22;4.92;;;;;;;1.81;76.16;99589.09;1700572;84;21183;-62
2021/03/20 09:23:48;;;;;;;8.28;5.58;;;;;;;1.86;75.37;99592.06;1700615;84;21172;-62
2021/03/20 09:26:45;;;;;;;3.95;3.45;;;;;;;1.90;75.53;99598.03;1700698;84;21540;-63
2021/03/20 09:29:30;;;;;;;4.00;3.60;;;;;;;1.97;75.01;99599.72;1700628;84;21450;-62
2021/03/20 09:32:07;;;;;;;4.58;3.80;;;;;;;1.97;73.92;99597.16;1700684;84;21525;-61
2021/03/20 09:34:48;;;;;;;4.45;3.52;;;;;;;1.97;74.10;99595.88;1700604;84;21104;-63
2021/03/20 09:37:25;;;;;;;4.33;3.40;;;;;;;1.95;72.66;99601.44;1700593;84;21084;-62
2021/03/20 09:39:55;;;;;;;5.28;3.98;;;;;;;1.88;72.74;99593.34;1700635;84;21155;-62
2021/03/20 09:42:35;;;;;;;8.28;6.20;;;;;;;1.84;72.08;99603.18;1672156;85;21411;-63
2021/03/20 09:45:23;;;;;;;6.85;5.10;;;;;;;1.78;72.10;99600.23;1669650;86;21153;-61
2021/03/20 09:47:55;;;;;;;17.02;7.47;;;;;;;1.76;72.38;99600.67;1644037;86;21599;-62
2021/03/20 09:50:30;;;;;;;8.53;6.45;;;;;;;1.79;72.07;99598.09;1644066;87;21129;-62
2021/03/20 09:53:12;;;;;;;4.80;4.17;;;;;;;1.85;71.56;99595.91;1643680;87;21499;-62
2021/03/20 09:55:44;;;;;;;5.83;4.08;;;;;;;1.96;71.55;99601.86;1642875;86;22299;-62
2021/03/20 09:58:23;;;;;;;4.60;3.60;;;;;;;2.02;71.10;99600.53;1643405;86;21218;-64
2021/03/20 10:00:57;;;;;;;5.92;4.15;;;;;;;2.11;69.93;99603.06;1643465;87;21583;-63
2021/03/20 10:03:50;;;;;;;6.67;4.90;;;;;;;2.20;70.28;99600.89;1643470;87;21127;-63
2021/03/20 10:06:34;;;;;;;7.00;5.10;;;;;;;2.29;69.88;99602.95;1645039;87;21096;-62
2021/03/20 10:09:10;;;;;;;3.90;3.55;;;;;;;2.40;68.71;99603.73;1646752;87;21456;-63
2021/03/20 10:11:54;;;;;;;4.50;3.67;;;;;;;2.44;68.34;99604.56;1646680;86;21201;-63
2021/03/20 10:14:29;;;;;;;6.37;4.37;;;;;;;2.46;68.56;99605.84;1646428;86;21235;-63
2021/03/20 10:17:16;;;;;;;6.97;4.97;;;;;;;2.47;69.21;99596.84;1646750;86;21107;-62
2021/03/20 10:20:13;;;;;;;5.87;4.78;;;;;;;2.56;69.49;99601.93;1646799;87;21093;-61
2021/03/20 10:22:55;;;;;;;8.08;4.45;;;;;;;2.70;68.64;99599.25;1646724;87;21218;-62
2021/03/20 10:25:30;;;;;;;5.42;3.83;;;;;;;2.88;67.80;99595.68;1873587;75;22721;-61
2021/03/20 10:28:03;;;;;;;7.97;4.67;;;;;;;2.90;67.35;99601.23;1839661;77;21124;-63
2021/03/20 10:30:35;;;;;;;5.08;3.92;;;;;;;2.97;67.74;99592.61;1841600;77;21357;-63
2021/03/20 10:33:21;;;;;;;4.10;3.52;;;;;;;3.10;67.98;99602.34;1841710;77;21621;-62
2021/03/20 10:35:49;;;;;;;4.87;3.55;;;;;;;3.15;66.63;99603.16;1841634;78;21054;-62
2021/03/20 10:38:26;;;;;;;4.33;3.52;;;;;;;3.14;66.21;99600.16;1841535;77;21113;-62
2021/03/20 10:41:28;;;;;;;7.12;5.83;;;;;;;3.08;66.27;99590.78;1828127;78;21105;-62
2021/03/20 10:44:17;;;;;;;5.50;3.70;;;;;;;3.08;66.47;99596.36;1804675;78;21267;-62
2021/03/20 10:46:46;;;;;;;6.10;3.55;;;;;;;3.11;65.80;99592.48;1807525;79;20998;-62
2021/03/20 10:49:19;;;;;;;7.03;3.92;;;;;;;3.10;65.72;99598.48;1808529;79;21109;-62
2021/03/20 10:51:49;;;;;;;3.87;2.98;;;;;;;3.13;65.21;99595.03;1808583;79;21168;-62
2021/03/20 10:54:36;;;;;;;6.15;3.10;;;;;;;3.13;64.46;99597.17;1808509;78;21030;-61
2021/03/20 10:57:08;;;;;;;2.90;2.35;;;;;;;3.14;64.29;99597.59;1808493;78;21377;-61
2021/03/20 10:59:40;;;;;;;4.42;2.60;;;;;;;3.12;63.14;99594.19;1808408;78;21109;-62
2021/03/20 11:02:32;;;;;;;3.65;2.55;;;;;;;3.07;63.18;99603.64;1808559;79;21050;-62
2021/03/20 11:05:15;;;;;;;2.98;2.67;;;;;;;3.03;63.33;99595.53;1808444;79;21081;-62
2021/03/20 11:07:59;;;;;;;3.60;2.80;;;;;;;2.96;63.46;99596.05;1797850;79;21160;-62
2021/03/20 11:10:34;;;;;;;7.53;3.10;;;;;;;2.87;63.06;99597.39;1757685;78;22130;-61
2021/03/20 11:13:08;;;;;;;7.90;3.05;;;;;;;2.82;63.53;99597.00;1808370;78;21108;-61
2021/03/20 11:15:37;;;;;;;3.30;2.80;;;;;;;2.78;63.82;99596.20;1808708;78;21097;-62
2021/03/20 11:18:10;;;;;;;5.37;3.02;;;;;;;2.76;63.92;99600.50;1808397;79;21164;-62
2021/03/20 11:20:40;;;;;;;3.85;2.70;;;;;;;2.73;64.06;99603.94;1808040;79;21088;-62
2021/03/20 11:23:30;;;;;;;3.70;2.75;;;;;;;2.72;63.83;99602.23;1808523;78;22215;-62
2021/03/20 11:26:24;;;;;;;5.67;3.02;;;;;;;2.75;64.64;99593.22;1808532;78;21486;-63
2021/03/20 11:28:53;;;;;;;14.23;4.12;;;;;;;2.84;64.86;99599.98;1776576;79;21140;-62
2021/03/20 11:31:21;;;;;;;4.15;2.95;;;;;;;2.97;64.64;99593.05;1808441;79;21200;-62
2021/03/20 11:33:49;;;;;;;5.00;4.12;;;;;;;3.08;63.73;99585.64;1808458;78;21066;-62
2021/03/20 11:36:21;;;;;;;13.98;5.00;;;;;;;3.17;61.83;99587.72;1808011;78;22375;-63
2021/03/20 11:38:49;;;;;;;9.03;5.23;;;;;;;3.27;60.97;99584.17;1808185;79;21093;-63
2021/03/20 11:41:25;;;;;;;8.78;4.25;;;;;;;3.41;60.29;99581.87;1807808;78;21085;-62
2021/03/20 11:44:02;;;;;;;8.40;3.58;;;;;;;3.54;59.53;99586.46;1807833;78;21188;-62
2021/03/20 11:46:35;;;;;;;5.00;2.55;;;;;;;3.64;59.87;99585.47;1758788;81;21087;-62
2021/03/20 11:49:33;;;;;;;4.47;3.08;;;;;;;3.73;59.66;99588.39;1750606;82;21376;-62
2021/03/20 11:52:00;;;;;;;7.50;2.55;;;;;;;3.75;59.24;99582.79;1750509;82;21101;-62
2021/03/20 11:54:38;;;;;;;5.22;2.72;;;;;;;3.72;57.84;99575.95;1750553;80;21070;-63
2021/03/20 11:57:18;;;;;;;6.28;2.85;;;;;;;3.69;58.08;99579.00;1750612;82;21142;-63
2021/03/20 11:59:45;;;;;;;6.30;3.15;;;;;;;3.70;57.95;99583.27;1745242;82;21537;-63
2021/03/20 12:02:31;;;;;;;5.15;3.15;;;;;;;3.78;56.84;99581.04;1750555;82;21569;-63
2021/03/20 12:05:20;;;;;;;8.50;3.40;;;;;;;3.88;56.58;99573.19;1750476;80;21877;-63
2021/03/20 12:07:48;;;;;;;11.88;3.77;;;;;;;3.97;57.22;99574.37;1750589;82;21067;-62
2021/03/20 12:10:24;;;;;;;13.88;3.62;;;;;;;4.06;57.80;99576.37;1750548;80;21191;-61
2021/03/20 12:12:57;;;;;;;8.98;3.98;;;;;;;4.15;57.54;99572.39;1750578;80;21066;-62
2021/03/20 12:15:35;;;;;;;12.93;5.17;;;;;;;4.26;56.69;99563.66;1750683;82;21485;-62
2021/03/20 12:18:15;;;;;;;5.40;3.95;;;;;;;4.34;56.58;99565.69;1750527;80;21219;-63
2021/03/20 12:20:43;;;;;;;7.65;4.15;;;;;;;4.40;55.60;99570.73;1721940;82;21177;-64
2021/03/20 12:23:24;;;;;;;10.13;5.25;;;;;;;4.44;55.46;99566.80;1750513;82;21074;-63
2021/03/20 12:25:56;;;;;;;6.78;3.20;;;;;;;4.52;55.87;99572.28;1750318;80;21649;-63
2021/03/20 12:28:43;;;;;;;13.53;4.17;;;;;;;4.55;54.66;99570.95;1750674;80;22298;-62
2021/03/20 12:31:24;;;;;;;9.33;4.22;;;;;;;4.54;55.05;99571.83;1750610;80;21479;-62
2021/03/20 12:33:58;;;;;;;6.50;4.50;;;;;;;4.55;53.44;99570.52;1750266;80;21071;-63
2021/03/20 12:36:31;;;;;;;7.83;4.05;;;;;;;4.53;53.08;99574.84;1750552;82;21134;-63